Terminal Aerodrome Forecast
Issued by NWS Pueblo, CO

Home | Current Version | Previous Version | Text Only | Print | Product List | Glossary On
Versions: 1 2 3 4 5 6 7 8 9 10 11 12 13
000
FTUS45 KPUB 281120
TAFPUB
TAF
KPUB 281120Z 2812/2912 25006KT P6SM SKC
     FM281800 09007KT P6SM FEW250
     FM282000 12010KT P6SM FEW250
     FM290200 08008KT P6SM FEW140 SCT250
     FM290900 30007KT P6SM SCT250=

USA.gov is the U.S. government's official web portal to all federal, state and local government web resources and services.